Time;durP1;ratioP1;P1;durP2;ratioP2;P2;SDS_P1;SDS_P2;PMS_P1;PMS_P2;Temp;Humidity;BMP_temperature;BMP_pressure;BME280_temperature;BME280_humidity;BME280_pressure;Samples;Min_cycle;Max_cycle;Signal;HPM_P1;HPM_P2
2022/01/21 00:00:45;;;;;;;;;2.00;2.00;;;;;12.24;41.84;98270.06;6304758;22;103976;-77
2022/01/21 00:03:12;;;;;;;;;2.00;1.75;;;;;12.22;41.93;98275.69;6306923;22;102165;-77
2022/01/21 00:05:39;;;;;;;;;2.00;2.00;;;;;12.23;41.39;98279.22;6309684;22;102040;-77
2022/01/21 00:08:06;;;;;;;;;1.75;1.75;;;;;12.23;41.31;98277.34;6297925;22;102089;-77
2022/01/21 00:10:33;;;;;;;;;1.50;1.00;;;;;12.21;41.78;98276.72;6295455;22;104130;-77
2022/01/21 00:13:01;;;;;;;;;2.50;1.75;;;;;12.19;41.48;98262.56;6304713;22;102438;-77
2022/01/21 00:15:28;;;;;;;;;2.00;1.00;;;;;12.21;41.72;98275.88;6261060;22;102484;-77
2022/01/21 00:17:55;;;;;;;;;4.00;2.00;;;;;12.19;41.43;98270.72;6302840;22;104499;-77
2022/01/21 00:31:24;;;;;;;;;2.00;1.75;;;;;12.09;41.16;98281.19;6305379;22;108840;-77
2022/01/21 00:33:51;;;;;;;;;2.50;1.75;;;;;12.08;41.30;98282.22;6292962;22;102193;-77
2022/01/21 00:36:18;;;;;;;;;2.25;1.00;;;;;12.08;41.57;98290.38;6298565;22;102667;-77
2022/01/21 00:38:45;;;;;;;;;2.00;2.00;;;;;12.08;41.46;98295.78;6293072;22;104060;-77
2022/01/21 00:41:20;;;;;;;;;2.00;1.00;;;;;12.10;41.85;98299.13;6296475;22;104031;-77
2022/01/21 00:43:47;;;;;;;;;2.50;1.50;;;;;12.09;41.36;98294.75;6297038;22;102136;-77
2022/01/21 00:46:14;;;;;;;;;1.00;1.00;;;;;12.09;41.20;98302.88;6291148;22;102149;-77
2022/01/21 00:48:41;;;;;;;;;2.25;2.00;;;;;12.10;41.94;98301.84;6304560;22;102113;-77
2022/01/21 00:51:08;;;;;;;;;2.00;1.75;;;;;12.08;42.05;98304.75;6292691;22;104034;-77
2022/01/21 00:53:35;;;;;;;;;1.75;1.00;;;;;12.07;41.38;98311.22;6301351;22;108732;-77
2022/01/21 00:56:02;;;;;;;;;3.00;1.00;;;;;12.06;41.62;98311.44;6300679;22;102424;-77
2022/01/21 00:58:29;;;;;;;;;2.75;2.00;;;;;12.06;42.12;98316.88;6306214;22;102506;-77
2022/01/21 01:00:56;;;;;;;;;2.00;1.25;;;;;12.05;41.99;98309.78;6291926;22;103923;-77
2022/01/21 01:03:24;;;;;;;;;2.00;1.00;;;;;12.05;41.55;98328.75;6261692;22;102264;-76
2022/01/21 01:05:51;;;;;;;;;1.25;0.75;;;;;12.06;41.51;98327.72;6275200;22;104078;-77
2022/01/21 01:08:19;;;;;;;;;1.50;1.00;;;;;12.04;41.79;98333.34;6268617;22;103780;-77
2022/01/21 01:21:37;;;;;;;;;1.25;1.25;;;;;11.98;41.89;98336.06;6299639;22;108766;-77
2022/01/21 01:29:24;;;;;;;;;1.00;1.00;;;;;11.98;41.51;98352.31;6309165;22;102299;-77
2022/01/21 01:31:52;;;;;;;;;1.00;1.00;;;;;11.98;41.78;98365.88;6290025;22;108748;-77
2022/01/21 01:34:19;;;;;;;;;2.00;2.00;;;;;11.98;41.90;98357.75;6301354;22;102090;-77
2022/01/21 01:36:47;;;;;;;;;1.25;1.00;;;;;11.97;41.94;98365.06;6301841;22;102205;-77
2022/01/21 01:39:37;;;;;;;;;0.25;0.25;;;;;11.97;41.38;98369.66;6306038;22;102061;-77
2022/01/21 01:50:19;;;;;;;;;2.00;1.25;;;;;11.94;41.96;98378.19;6232648;22;102236;-77
2022/01/21 01:52:46;;;;;;;;;1.00;1.00;;;;;11.93;41.39;98371.94;6288608;22;104085;-77
2022/01/21 01:55:13;;;;;;;;;1.00;1.00;;;;;11.94;41.24;98367.34;6299318;22;102102;-77
2022/01/21 01:57:40;;;;;;;;;1.00;1.00;;;;;11.92;41.81;98369.47;6300670;22;102337;-77
2022/01/21 02:00:08;;;;;;;;;1.75;1.50;;;;;11.93;41.33;98363.81;6299275;22;102503;-77
2022/01/21 02:02:35;;;;;;;;;1.00;1.00;;;;;11.90;41.97;98372.38;6258282;22;104064;-77
2022/01/21 02:05:02;;;;;;;;;1.00;1.00;;;;;11.88;41.67;98365.53;6236665;22;102485;-77
2022/01/21 02:07:29;;;;;;;;;2.50;1.00;;;;;11.88;41.61;98368.25;6287272;22;102362;-77
2022/01/21 02:09:56;;;;;;;;;1.00;1.00;;;;;11.86;41.39;98375.72;6269553;22;102109;-77
2022/01/21 02:12:23;;;;;;;;;1.00;1.00;;;;;11.86;41.41;98381.16;6272573;22;104097;-77
2022/01/21 02:14:52;;;;;;;;;2.00;0.50;;;;;11.87;41.37;98372.81;6249392;22;102540;-77
2022/01/21 02:22:46;;;;;;;;;1.25;1.25;;;;;11.89;41.78;98386.13;6304108;22;108996;-76
2022/01/21 02:25:19;;;;;;;;;0.75;0.75;;;;;11.89;41.65;98384.25;6272220;22;102666;-76
2022/01/21 02:27:48;;;;;;;;;1.00;1.00;;;;;11.87;41.61;98390.94;6300939;22;102399;-76
2022/01/21 02:30:19;;;;;;;;;2.00;1.00;;;;;11.88;41.51;98389.91;6304357;22;102551;-77
2022/01/21 02:32:56;;;;;;;;;1.00;1.00;;;;;11.86;41.39;98392.81;6307221;22;104054;-77
2022/01/21 02:35:24;;;;;;;;;0.75;0.75;;;;;11.86;42.05;98389.28;6292650;22;102171;-77
2022/01/21 02:37:51;;;;;;;;;1.00;1.00;;;;;11.85;42.13;98401.16;6268493;22;102094;-77
2022/01/21 02:40:19;;;;;;;;;1.00;1.00;;;;;11.85;41.34;98406.56;6277778;22;102543;-77
2022/01/21 02:42:46;;;;;;;;;0.75;0.75;;;;;11.84;41.50;98411.16;6278938;22;104159;-77
2022/01/21 02:45:14;;;;;;;;;1.50;1.00;;;;;11.84;41.21;98419.28;6269709;22;102524;-77
2022/01/21 02:47:43;;;;;;;;;0.00;0.00;;;;;11.84;41.65;98426.59;6283771;22;102415;-77
2022/01/21 02:50:10;;;;;;;;;0.00;0.00;;;;;11.83;41.36;98424.94;6300676;22;105523;-76
2022/01/21 02:52:52;;;;;;;;;1.00;1.00;;;;;11.78;41.75;98422.88;6301032;22;104512;-77
2022/01/21 02:55:19;;;;;;;;;1.00;1.00;;;;;11.77;41.61;98431.19;6297588;22;102802;-76
2022/01/21 02:57:46;;;;;;;;;0.75;0.75;;;;;11.78;41.64;98435.56;6264224;22;102198;-76
2022/01/21 03:00:13;;;;;;;;;0.50;0.50;;;;;11.77;41.12;98437.44;6297451;22;102517;-76
2022/01/21 03:02:40;;;;;;;;;1.50;1.00;;;;;11.76;41.60;98433.06;6296625;22;103987;-76
2022/01/21 03:05:13;;;;;;;;;1.00;1.00;;;;;11.76;41.66;98443.91;6297550;22;102172;-77
2022/01/21 03:07:41;;;;;;;;;1.00;0.25;;;;;11.79;41.42;98439.94;6301989;22;102350;-77
2022/01/21 03:10:08;;;;;;;;;0.75;0.75;;;;;11.84;41.56;98445.56;6283322;22;102544;-77
2022/01/21 03:12:35;;;;;;;;;0.00;0.00;;;;;11.86;41.81;98457.00;6303329;22;103967;-77
2022/01/21 03:15:03;;;;;;;;;1.00;1.00;;;;;11.89;41.27;98452.00;6307271;22;102511;-76
2022/01/21 03:17:30;;;;;;;;;1.00;1.00;;;;;11.95;41.40;98455.72;6276690;22;102170;-76
2022/01/21 03:19:57;;;;;;;;;0.25;0.25;;;;;11.99;41.07;98454.25;6296296;22;102453;-76
2022/01/21 03:22:28;;;;;;;;;0.50;0.50;;;;;12.03;40.90;98453.63;6307045;22;108796;-76
2022/01/21 03:24:55;;;;;;;;;1.00;1.00;;;;;12.06;41.26;98453.22;6305652;22;102187;-76
2022/01/21 03:27:22;;;;;;;;;1.00;1.00;;;;;12.08;41.53;98455.69;6290563;22;102182;-76
2022/01/21 03:29:49;;;;;;;;;1.00;0.25;;;;;12.13;40.97;98457.75;6308235;22;102504;-77
2022/01/21 03:32:16;;;;;;;;;1.00;1.00;;;;;12.16;41.35;98455.44;6306816;22;103837;-77
2022/01/21 03:34:43;;;;;;;;;0.00;0.00;;;;;12.18;40.56;98472.34;6308521;22;102209;-77
2022/01/21 03:37:10;;;;;;;;;0.00;0.00;;;;;12.22;41.50;98467.31;6295914;22;102553;-77
2022/01/21 03:39:37;;;;;;;;;0.25;0.25;;;;;12.25;40.48;98461.44;6301766;22;101963;-77
2022/01/21 03:42:04;;;;;;;;;1.00;1.00;;;;;12.27;40.95;98473.75;6307635;22;103921;-76
2022/01/21 03:44:31;;;;;;;;;0.75;0.50;;;;;12.30;41.11;98484.16;6275611;22;102460;-76
2022/01/21 03:46:58;;;;;;;;;2.25;1.00;;;;;12.34;40.73;98492.69;6311800;22;102497;-76
2022/01/21 03:49:28;;;;;;;;;0.25;0.00;;;;;12.36;40.33;98486.03;6306019;22;102210;-77
2022/01/21 03:51:55;;;;;;;;;0.00;0.00;;;;;12.39;41.00;98493.72;6272842;22;104257;-77
2022/01/21 03:54:22;;;;;;;;;0.00;0.00;;;;;12.41;40.45;98488.94;6307491;22;105292;-76
2022/01/21 03:56:49;;;;;;;;;1.00;1.00;;;;;12.43;41.08;98486.81;6306450;22;102715;-76
2022/01/21 03:59:16;;;;;;;;;0.00;0.00;;;;;12.44;40.32;98493.91;6304608;22;102481;-77
2022/01/21 04:01:43;;;;;;;;;1.00;0.00;;;;;12.44;40.92;98490.34;6303176;22;104260;-77
2022/01/21 04:04:10;;;;;;;;;1.00;1.00;;;;;12.47;40.81;98496.19;6301083;22;102066;-77
2022/01/21 04:06:37;;;;;;;;;0.00;0.00;;;;;12.48;40.20;98500.56;6303149;22;102727;-77
2022/01/21 04:09:04;;;;;;;;;0.75;0.00;;;;;12.47;40.20;98496.19;6277021;22;102073;-77
2022/01/21 04:11:31;;;;;;;;;0.00;0.00;;;;;12.49;40.22;98495.97;6305956;22;104060;-76
2022/01/21 04:13:58;;;;;;;;;0.50;0.50;;;;;12.51;40.65;98502.88;6306298;22;101883;-76
2022/01/21 04:16:25;;;;;;;;;0.00;0.00;;;;;12.52;40.85;98509.94;6295741;22;102156;-76
2022/01/21 04:18:52;;;;;;;;;0.00;0.00;;;;;12.51;40.99;98505.56;6300443;22;104500;-77
2022/01/21 04:21:20;;;;;;;;;0.75;0.75;;;;;12.50;41.15;98517.47;6287216;22;104012;-77
2022/01/21 04:23:47;;;;;;;;;0.00;0.00;;;;;12.51;40.92;98516.41;6302842;22;102540;-77
2022/01/21 04:26:14;;;;;;;;;0.75;0.75;;;;;12.52;40.74;98514.50;6296630;22;102133;-77
2022/01/21 04:28:41;;;;;;;;;1.50;0.00;;;;;12.53;40.79;98529.75;6299391;22;102783;-77
2022/01/21 04:31:08;;;;;;;;;0.00;0.00;;;;;12.52;40.14;98515.34;6294848;22;103994;-76
2022/01/21 04:33:35;;;;;;;;;0.25;0.00;;;;;12.53;40.69;98516.19;6300445;22;102122;-77
2022/01/21 04:36:02;;;;;;;;;1.00;0.00;;;;;12.53;40.08;98511.59;6297286;22;102102;-77
2022/01/21 04:38:30;;;;;;;;;0.00;0.00;;;;;12.54;40.50;98512.44;6283243;22;102150;-77
2022/01/21 04:49:24;;;;;;;;;1.00;1.00;;;;;12.47;40.50;98523.28;6304808;22;102198;-76
2022/01/21 04:52:04;;;;;;;;;0.00;0.00;;;;;12.46;40.12;98520.81;6303650;22;104102;-77
2022/01/21 04:54:32;;;;;;;;;0.00;0.00;;;;;12.46;40.52;98518.94;6302279;22;102257;-77
2022/01/21 04:56:59;;;;;;;;;1.00;1.00;;;;;12.44;40.02;98529.16;6305025;22;102441;-76
2022/01/21 04:59:26;;;;;;;;;1.00;1.00;;;;;12.44;40.94;98521.03;6308770;22;102438;-76
2022/01/21 05:01:54;;;;;;;;;0.00;0.00;;;;;12.42;40.88;98523.13;6300098;22;104012;-77
2022/01/21 05:04:21;;;;;;;;;0.50;0.50;;;;;12.43;40.47;98523.94;6276808;22;102250;-76
2022/01/21 05:06:50;;;;;;;;;1.00;1.00;;;;;12.40;40.30;98519.78;6282693;22;102638;-76
2022/01/21 05:09:18;;;;;;;;;0.00;0.00;;;;;12.39;40.70;98526.25;6295369;22;102144;-77
2022/01/21 05:11:45;;;;;;;;;0.00;0.00;;;;;12.36;40.01;98518.56;6303716;22;103932;-76
2022/01/21 05:14:22;;;;;;;;;1.00;1.00;;;;;12.34;40.24;98520.63;6302327;22;102013;-76
2022/01/21 05:16:51;;;;;;;;;0.00;0.00;;;;;12.29;41.22;98512.31;6299272;22;104744;-77
2022/01/21 05:19:19;;;;;;;;;2.00;1.00;;;;;12.29;40.48;98516.94;6294937;22;102301;-76
2022/01/21 05:21:48;;;;;;;;;0.00;0.00;;;;;12.29;40.76;98512.31;6299926;22;104183;-77
2022/01/21 05:24:16;;;;;;;;;0.00;0.00;;;;;12.28;40.89;98510.66;6302647;22;102488;-77
2022/01/21 05:26:52;;;;;;;;;1.75;0.00;;;;;12.26;41.16;98512.75;6286678;22;102459;-77
2022/01/21 05:29:21;;;;;;;;;0.00;0.00;;;;;12.27;41.06;98506.28;6293700;22;102442;-77
2022/01/21 05:31:48;;;;;;;;;0.00;0.00;;;;;12.26;40.62;98510.03;6277644;22;104080;-77
2022/01/21 05:34:15;;;;;;;;;1.00;0.00;;;;;12.27;41.14;98511.72;6299669;22;102152;-77
2022/01/21 05:36:42;;;;;;;;;1.25;1.25;;;;;12.25;40.38;98504.81;6261320;22;102515;-77
2022/01/21 05:39:10;;;;;;;;;0.00;0.00;;;;;12.23;40.83;98517.78;6270294;22;102708;-77
2022/01/21 05:41:37;;;;;;;;;1.00;1.00;;;;;12.23;41.23;98523.19;6273405;22;104056;-78
2022/01/21 05:44:15;;;;;;;;;0.50;0.00;;;;;12.20;40.45;98519.03;6264221;22;104132;-78
2022/01/21 05:49:22;;;;;;;;;0.00;0.00;;;;;12.17;41.23;98527.59;6295619;22;102359;-78
2022/01/21 05:51:52;;;;;;;;;0.75;0.00;;;;;12.17;40.26;98519.44;6302054;22;103181;-78
2022/01/21 05:54:24;;;;;;;;;0.00;0.00;;;;;12.16;41.06;98522.41;6305499;22;102434;-78
2022/01/21 05:56:52;;;;;;;;;0.00;0.00;;;;;12.14;41.22;98514.47;6275970;22;102449;-78
2022/01/21 05:59:19;;;;;;;;;0.25;0.00;;;;;12.14;40.97;98519.06;6267321;22;102075;-78
2022/01/21 06:01:47;;;;;;;;;0.25;0.00;;;;;12.12;40.38;98518.41;6305592;22;103572;-77
2022/01/21 06:04:14;;;;;;;;;1.50;0.00;;;;;12.08;40.76;98524.28;6283575;22;102103;-77
2022/01/21 06:06:41;;;;;;;;;0.25;0.00;;;;;12.03;40.69;98523.25;6278698;22;102447;-77
2022/01/21 06:09:08;;;;;;;;;0.00;0.00;;;;;12.01;40.39;98520.75;6308822;22;102167;-77
2022/01/21 06:11:35;;;;;;;;;0.25;0.25;;;;;12.01;40.76;98525.34;6310390;22;104979;-77
2022/01/21 06:14:03;;;;;;;;;0.00;0.00;;;;;11.99;40.61;98528.25;6313361;22;102343;-77
2022/01/21 06:16:30;;;;;;;;;1.00;0.00;;;;;12.02;40.29;98532.44;6309883;22;102731;-78
2022/01/21 06:18:57;;;;;;;;;0.25;0.25;;;;;12.00;40.90;98531.81;6305114;22;102077;-78
2022/01/21 06:21:25;;;;;;;;;0.00;0.00;;;;;12.01;40.49;98536.19;6311042;22;103540;-78
2022/01/21 06:23:52;;;;;;;;;1.00;1.00;;;;;12.00;40.64;98534.50;6306457;22;102384;-77
2022/01/21 06:26:19;;;;;;;;;0.00;0.00;;;;;12.01;41.03;98539.72;6306357;22;102094;-78
2022/01/21 06:28:46;;;;;;;;;0.00;0.00;;;;;12.01;41.65;98553.28;6309057;22;102209;-78
2022/01/21 06:31:13;;;;;;;;;0.00;0.00;;;;;12.04;42.25;98541.16;6308175;22;103968;-78
2022/01/21 06:33:40;;;;;;;;;1.00;1.00;;;;;12.09;42.55;98552.22;6310349;22;102371;-80
2022/01/21 06:36:07;;;;;;;;;0.00;0.00;;;;;12.08;41.70;98559.50;6308487;22;102425;-80
2022/01/21 06:38:35;;;;;;;;;0.00;0.00;;;;;12.07;41.99;98549.69;6289440;22;102143;-78
2022/01/21 06:41:02;;;;;;;;;0.00;0.00;;;;;12.08;41.24;98559.50;6315942;22;108788;-78
2022/01/21 06:43:30;;;;;;;;;0.00;0.00;;;;;12.04;41.36;98560.13;6278338;22;102212;-78
2022/01/21 06:45:57;;;;;;;;;0.00;0.00;;;;;12.03;41.25;98555.75;6281386;22;102597;-78
2022/01/21 06:48:25;;;;;;;;;0.00;0.00;;;;;12.03;40.81;98555.75;6311172;22;102442;-78
2022/01/21 06:50:52;;;;;;;;;2.50;0.50;;;;;12.01;41.79;98555.16;6279655;22;104027;-78
2022/01/21 06:53:19;;;;;;;;;0.75;0.00;;;;;11.96;41.73;98552.25;6270524;22;102460;-78
2022/01/21 06:55:47;;;;;;;;;0.00;0.00;;;;;11.94;41.57;98562.44;6277198;22;102047;-78
2022/01/21 06:58:14;;;;;;;;;0.00;0.00;;;;;11.94;40.86;98567.84;6281912;22;102264;-78
2022/01/21 07:00:41;;;;;;;;;1.00;0.00;;;;;11.93;41.87;98571.63;6305623;22;103999;-78
2022/01/21 07:03:08;;;;;;;;;1.00;1.00;;;;;11.92;41.09;98576.22;6299448;22;102657;-78
2022/01/21 07:05:35;;;;;;;;;1.00;1.00;;;;;11.93;41.18;98577.06;6312734;22;102010;-78
2022/01/21 07:08:02;;;;;;;;;1.00;0.75;;;;;11.91;41.16;98568.28;6313503;22;102221;-78
2022/01/21 07:10:30;;;;;;;;;1.50;0.75;;;;;11.93;40.79;98571.63;6266052;22;103980;-77
2022/01/21 07:13:02;;;;;;;;;1.00;0.00;;;;;11.92;41.44;98564.53;6301721;22;101892;-81
2022/01/21 07:15:29;;;;;;;;;0.75;0.00;;;;;11.90;40.90;98566.63;6278359;22;102243;-80
2022/01/21 07:17:56;;;;;;;;;0.00;0.00;;;;;11.88;41.55;98571.44;6311748;22;102593;-80
2022/01/21 07:20:23;;;;;;;;;0.50;0.50;;;;;11.87;41.55;98572.47;6289002;22;104143;-80
2022/01/21 07:22:50;;;;;;;;;0.00;0.00;;;;;11.87;41.76;98573.31;6302971;22;102562;-80
2022/01/21 07:25:18;;;;;;;;;0.00;0.00;;;;;11.85;40.81;98569.97;6287255;22;102252;-80
2022/01/21 07:27:49;;;;;;;;;0.00;0.00;;;;;11.89;41.52;98578.50;6297255;22;102449;-77
2022/01/21 07:30:16;;;;;;;;;1.00;0.00;;;;;11.96;40.74;98579.34;6276241;22;103294;-81
2022/01/21 07:32:43;;;;;;;;;0.50;0.00;;;;;11.99;40.61;98574.31;6304686;22;102455;-78
2022/01/21 07:35:11;;;;;;;;;0.00;0.00;;;;;11.98;40.75;98575.34;6304340;22;102190;-77
2022/01/21 07:37:59;;;;;;;;;0.00;0.00;;;;;11.98;41.20;98571.81;6286809;22;103162;-78
2022/01/21 07:40:26;;;;;;;;;0.25;0.00;;;;;12.01;40.63;98574.13;6295386;22;104127;-78
2022/01/21 07:42:53;;;;;;;;;0.00;0.00;;;;;12.03;40.51;98572.84;6274844;22;103644;-80
2022/01/21 07:45:21;;;;;;;;;0.00;0.00;;;;;12.09;41.09;98573.91;6307682;22;102338;-80
2022/01/21 07:47:48;;;;;;;;;0.75;0.00;;;;;12.13;40.55;98583.25;6313807;22;102127;-80
2022/01/21 07:50:16;;;;;;;;;0.50;0.00;;;;;12.16;40.23;98585.53;6265311;22;102915;-80
2022/01/21 07:52:43;;;;;;;;;0.00;0.00;;;;;12.17;40.28;98584.50;6254615;22;102082;-80
2022/01/21 07:55:10;;;;;;;;;1.00;0.00;;;;;12.19;40.13;98584.31;6243274;22;101918;-76
2022/01/21 07:57:38;;;;;;;;;0.00;0.00;;;;;12.18;40.05;98586.19;6277161;22;102711;-77
2022/01/21 08:00:06;;;;;;;;;1.00;0.00;;;;;12.17;40.65;98592.63;6284331;22;103985;-77
2022/01/21 08:02:34;;;;;;;;;1.00;0.00;;;;;12.16;40.90;98590.16;6295387;22;102345;-77
2022/01/21 08:05:03;;;;;;;;;1.00;0.00;;;;;12.09;40.76;98579.31;6261682;22;101895;-77
2022/01/21 08:07:30;;;;;;;;;0.00;0.00;;;;;12.16;40.34;98590.97;6279238;22;102158;-77
2022/01/21 08:09:57;;;;;;;;;1.00;0.50;;;;;12.14;40.86;98584.94;6269484;22;103228;-77
2022/01/21 08:12:24;;;;;;;;;0.50;0.00;;;;;12.14;40.18;98590.34;6276436;22;102182;-77
2022/01/21 08:14:51;;;;;;;;;0.00;0.00;;;;;12.15;40.15;98586.63;6308843;22;102249;-77
2022/01/21 08:17:18;;;;;;;;;0.00;0.00;;;;;12.14;40.83;98584.09;6278161;22;102095;-80
2022/01/21 08:19:45;;;;;;;;;0.00;0.00;;;;;12.16;41.12;98579.31;6278660;22;103883;-80
2022/01/21 08:22:12;;;;;;;;;0.00;0.00;;;;;12.13;40.30;98583.25;6265148;22;102109;-80
2022/01/21 08:24:39;;;;;;;;;1.50;0.00;;;;;12.15;40.16;98583.06;6277355;22;102216;-77
2022/01/21 08:27:06;;;;;;;;;0.00;0.00;;;;;12.15;40.82;98585.78;6280206;22;102356;-77
2022/01/21 08:29:34;;;;;;;;;0.00;0.00;;;;;12.14;40.37;98582.22;6274304;22;109122;-80
2022/01/21 08:32:01;;;;;;;;;0.50;0.50;;;;;12.13;40.45;98588.69;6270502;22;102074;-80
2022/01/21 08:34:29;;;;;;;;;1.00;0.00;;;;;12.09;40.47;98587.44;6280008;22;102297;-79
2022/01/21 08:36:56;;;;;;;;;2.00;0.00;;;;;12.08;40.32;98586.59;6269910;22;102410;-79
2022/01/21 08:39:23;;;;;;;;;0.50;0.50;;;;;12.07;40.65;98593.06;6268785;22;104129;-82
2022/01/21 08:41:50;;;;;;;;;1.00;0.00;;;;;12.08;40.71;98602.03;6281059;22;102424;-80
2022/01/21 08:44:17;;;;;;;;;1.00;0.50;;;;;12.08;40.95;98599.31;6274903;22;102488;-81
2022/01/21 08:46:44;;;;;;;;;1.00;0.75;;;;;12.10;40.33;98596.41;6273527;22;102177;-83
2022/01/21 08:49:31;;;;;;;;;0.00;0.00;;;;;12.10;40.74;98608.09;6275157;22;105357;-80
2022/01/21 08:51:59;;;;;;;;;2.00;1.00;;;;;12.09;40.92;98601.00;6275949;22;102109;-79
2022/01/21 08:54:27;;;;;;;;;1.25;0.75;;;;;12.08;41.01;98612.88;6283375;22;102155;-80
2022/01/21 08:56:54;;;;;;;;;1.00;0.25;;;;;12.07;40.34;98614.75;6308005;22;102430;-80
2022/01/21 08:59:22;;;;;;;;;1.00;0.00;;;;;12.07;40.83;98624.75;6310109;22;103796;-80
2022/01/21 09:01:49;;;;;;;;;1.00;1.00;;;;;12.06;41.17;98623.94;6312231;22;102172;-81
2022/01/21 09:04:16;;;;;;;;;1.50;1.00;;;;;12.06;40.59;98614.97;6299642;22;102186;-80
2022/01/21 09:06:44;;;;;;;;;1.00;1.00;;;;;12.09;40.71;98622.69;6313306;22;102579;-81
2022/01/21 09:09:11;;;;;;;;;0.75;0.75;;;;;12.08;40.97;98612.88;6309136;22;104044;-81
2022/01/21 09:11:38;;;;;;;;;1.00;0.75;;;;;12.07;40.56;98622.03;6310955;22;102348;-82
2022/01/21 09:14:05;;;;;;;;;1.50;1.00;;;;;12.05;40.66;98613.31;6306612;22;102496;-84
2022/01/21 09:16:32;;;;;;;;;0.75;0.75;;;;;12.03;41.06;98610.78;6309413;22;102102;-84
2022/01/21 09:19:02;;;;;;;;;1.00;1.00;;;;;12.03;40.39;98609.97;6305713;22;103434;-83
2022/01/21 09:21:33;;;;;;;;;1.00;0.00;;;;;12.01;40.27;98606.66;6313104;22;102762;-83
2022/01/21 09:24:00;;;;;;;;;0.75;0.75;;;;;11.99;41.37;98614.97;6308209;22;102185;-83
2022/01/21 09:26:27;;;;;;;;;1.00;0.75;;;;;11.99;40.98;98606.00;6310082;22;104210;-82
2022/01/21 09:28:56;;;;;;;;;0.00;0.00;;;;;12.00;41.13;98610.38;6274539;22;104092;-83
2022/01/21 09:31:23;;;;;;;;;0.00;0.00;;;;;12.01;40.87;98618.31;6281122;22;102320;-83
2022/01/21 09:34:11;;;;;;;;;0.00;0.00;;;;;12.02;40.21;98613.72;6298853;22;102523;-83
2022/01/21 09:36:38;;;;;;;;;1.00;0.00;;;;;12.02;40.61;98614.53;6304163;22;109855;-80
2022/01/21 09:39:05;;;;;;;;;0.00;0.00;;;;;12.03;40.49;98609.97;6314514;22;104258;-83
2022/01/21 09:41:32;;;;;;;;;0.00;0.00;;;;;12.04;40.05;98623.31;6312278;22;102153;-83
2022/01/21 09:44:02;;;;;;;;;1.00;0.75;;;;;12.05;40.52;98618.72;6305654;22;102243;-82
2022/01/21 09:46:36;;;;;;;;;0.75;0.00;;;;;12.05;40.27;98608.72;6300329;22;102224;-83
2022/01/21 09:51:49;;;;;;;;;0.25;0.25;;;;;12.09;40.03;98625.38;6303831;22;102176;-83
2022/01/21 09:54:17;;;;;;;;;0.00;0.00;;;;;12.07;40.01;98614.75;6263538;22;102187;-83
2022/01/21 09:56:45;;;;;;;;;1.00;1.00;;;;;12.06;40.11;98609.56;6259237;22;102152;-83
2022/01/21 09:59:16;;;;;;;;;0.75;0.75;;;;;12.07;40.17;98600.34;6303994;22;103869;-83
2022/01/21 10:01:43;;;;;;;;;0.50;0.50;;;;;12.07;40.65;98594.94;6269396;22;102274;-83
2022/01/21 10:04:10;;;;;;;;;0.25;0.25;;;;;12.05;40.12;98597.88;6302147;22;102213;-83
2022/01/21 10:06:37;;;;;;;;;0.25;0.25;;;;;12.04;40.18;98590.78;6309026;22;102644;-83
2022/01/21 10:09:04;;;;;;;;;1.50;1.00;;;;;12.05;39.86;98589.75;6278446;22;108813;-82
2022/01/21 10:11:31;;;;;;;;;0.50;0.00;;;;;12.02;39.76;98583.94;6306309;22;102303;-85
2022/01/21 10:13:58;;;;;;;;;1.75;1.75;;;;;11.95;39.84;98583.09;6303091;22;102153;-80
2022/01/21 10:16:25;;;;;;;;;0.75;0.75;;;;;11.94;39.72;98586.81;6314150;22;102397;-81
2022/01/21 10:19:22;;;;;;;;;2.00;2.00;;;;;11.93;39.84;98593.31;6294417;22;104372;-80
2022/01/21 10:21:59;;;;;;;;;4.25;3.25;;;;;11.93;40.18;98588.69;6303536;22;102509;-80
2022/01/21 10:24:26;;;;;;;;;1.75;1.00;;;;;11.91;40.25;98589.97;6259912;22;102520;-80
2022/01/21 10:26:54;;;;;;;;;2.25;1.00;;;;;11.90;40.63;98580.16;6309804;22;102787;-80
2022/01/21 10:29:21;;;;;;;;;2.00;1.00;;;;;11.90;40.02;98583.72;6314117;22;103999;-81
2022/01/21 10:31:59;;;;;;;;;2.25;1.25;;;;;11.95;40.56;98593.91;6307459;22;104377;-81
2022/01/21 10:34:29;;;;;;;;;3.00;2.25;;;;;11.95;40.01;98589.34;6313132;22;102121;-81
2022/01/21 10:37:04;;;;;;;;;1.00;1.00;;;;;11.94;40.53;98581.41;6304349;22;102261;-81
2022/01/21 10:39:34;;;;;;;;;1.25;1.25;;;;;11.95;40.55;98596.63;6282503;22;103956;-81
2022/01/21 10:42:01;;;;;;;;;1.25;1.00;;;;;11.94;39.93;98589.53;6284617;22;102593;-81
2022/01/21 10:44:30;;;;;;;;;1.50;1.50;;;;;11.92;40.46;98592.47;6308954;22;102105;-81
2022/01/21 10:47:15;;;;;;;;;1.50;1.50;;;;;11.91;40.15;98585.38;6287171;22;102189;-81
2022/01/21 10:49:43;;;;;;;;;2.50;1.00;;;;;11.94;40.27;98589.53;6274651;22;108810;-80
2022/01/21 10:52:11;;;;;;;;;2.50;1.25;;;;;11.97;40.02;98589.97;6302895;22;102194;-80
2022/01/21 10:54:42;;;;;;;;;1.00;1.00;;;;;12.00;40.37;98589.53;6312871;22;102085;-81
2022/01/21 10:57:12;;;;;;;;;1.75;1.75;;;;;12.03;40.49;98593.69;6293055;22;109721;-79
2022/01/21 11:00:05;;;;;;;;;2.25;2.00;;;;;12.06;40.73;98586.00;6298416;22;103974;-79
2022/01/21 11:02:53;;;;;;;;;2.75;2.00;;;;;12.11;40.13;98587.25;6305337;22;102733;-81
2022/01/21 11:05:25;;;;;;;;;0.50;0.50;;;;;12.14;40.40;98589.53;6266222;22;101843;-81
2022/01/21 11:08:01;;;;;;;;;2.00;2.00;;;;;12.19;40.27;98584.31;6309308;22;102572;-81
2022/01/21 11:10:37;;;;;;;;;1.00;1.00;;;;;12.21;40.60;98590.34;6269020;22;104151;-81
2022/01/21 11:13:18;;;;;;;;;2.00;2.00;;;;;12.21;39.84;98574.91;6308334;22;102317;-81
2022/01/21 11:15:49;;;;;;;;;2.00;2.00;;;;;12.23;39.52;98570.13;6302981;22;102419;-81
2022/01/21 11:18:58;;;;;;;;;2.00;2.00;;;;;12.26;40.12;98564.25;6298912;22;102324;-81
2022/01/21 11:21:44;;;;;;;;;1.00;1.00;;;;;12.31;40.08;98572.59;6279135;22;109602;-81
2022/01/21 11:24:11;;;;;;;;;2.00;2.00;;;;;12.33;40.30;98562.38;6300684;22;102206;-80
2022/01/21 11:26:39;;;;;;;;;1.00;1.00;;;;;12.34;39.80;98569.44;6301999;22;102455;-81
2022/01/21 11:29:06;;;;;;;;;1.00;1.00;;;;;12.37;40.07;98570.91;6300650;22;102460;-81
2022/01/21 11:31:33;;;;;;;;;1.00;1.00;;;;;12.39;40.27;98564.22;6307707;22;103613;-80
2022/01/21 11:34:10;;;;;;;;;3.00;1.00;;;;;12.43;39.56;98572.75;6306267;22;109550;-81
2022/01/21 11:36:37;;;;;;;;;1.25;1.25;;;;;12.45;40.34;98555.25;6277340;22;102135;-81
2022/01/21 11:39:04;;;;;;;;;2.00;0.25;;;;;12.47;39.51;98557.75;6312970;22;102152;-81
2022/01/21 11:41:31;;;;;;;;;1.00;1.00;;;;;12.48;40.30;98552.09;6306252;22;104005;-81
2022/01/21 11:44:01;;;;;;;;;1.00;1.00;;;;;12.51;40.35;98554.41;6277469;22;102666;-81
2022/01/21 11:49:08;;;;;;;;;2.00;2.00;;;;;12.57;40.24;98557.25;6288375;22;102502;-80
2022/01/21 11:51:39;;;;;;;;;3.75;3.00;;;;;12.63;39.72;98557.25;6306003;22;108634;-81
2022/01/21 11:54:11;;;;;;;;;0.00;0.00;;;;;12.65;40.05;98551.63;6292712;22;102364;-81
2022/01/21 11:56:46;;;;;;;;;0.75;0.75;;;;;12.69;39.45;98550.97;6307209;22;102071;-81
2022/01/21 11:59:38;;;;;;;;;1.50;1.00;;;;;12.72;40.41;98555.97;6306190;22;102551;-78
2022/01/21 12:02:26;;;;;;;;;0.50;0.50;;;;;12.74;39.46;98553.84;6295714;22;110138;-78
2022/01/21 12:05:01;;;;;;;;;0.75;0.75;;;;;12.77;39.61;98547.16;6309598;22;102743;-78
2022/01/21 12:07:37;;;;;;;;;2.00;1.00;;;;;12.79;40.05;98548.59;6306038;22;102105;-78
2022/01/21 12:10:04;;;;;;;;;0.00;0.00;;;;;12.80;40.16;98558.41;6309141;22;102175;-78
2022/01/21 12:15:36;;;;;;;;;1.00;1.00;;;;;12.83;39.95;98536.28;6303677;22;102546;-78
2022/01/21 12:18:58;;;;;;;;;1.50;1.50;;;;;12.87;39.77;98539.41;6276886;22;102382;-78
2022/01/21 12:21:29;;;;;;;;;1.00;1.00;;;;;12.88;40.24;98541.88;6310280;22;102107;-78
2022/01/21 12:23:58;;;;;;;;;1.00;1.00;;;;;12.92;40.16;98534.16;6301759;22;104174;-78
2022/01/21 12:26:29;;;;;;;;;2.25;1.25;;;;;12.93;40.12;98541.22;6295124;22;102172;-78
2022/01/21 12:28:58;;;;;;;;;4.50;1.75;;;;;12.94;40.29;98538.31;6308018;22;103307;-78
2022/01/21 12:31:42;;;;;;;;;0.75;0.75;;;;;12.97;39.48;98539.75;6309857;22;102106;-78
2022/01/21 12:34:13;;;;;;;;;1.00;1.00;;;;;12.98;39.26;98541.41;6308520;22;108842;-78